San Diego/Miramar MCAS, California
Current Conditions -  °F | °C
As of 5:55 AM on Thursday 30 Oct 2014 (Local Time) from KNKX Reporting Station
Moderate Fog Moderate Fog  
Wind Chill: 56°   Ceiling: 100
Heat Index: 56°   Visibility: 0.25mi
Dew Point: 54°   Wind: 3mph
Humidity: 93%   Direction: 70°ENE
Pressure: 29.98"   Gusts: NA
Location:  32.85°N, 117.12°W
Report Text: KNKX 301255Z 07003KT 1/4SM FG VV001 13/12 A2998 RMK AO2 SLP146 T01330122 $
Loading
Personal Weather Stations






























Interactive Weather Map
Tropical Storm Tracking
New forecast layout! Learn more

10-Day Weather Forecast

Advertisements
Track Severe Weather on mobile